BBB078 KLAX-MMMX
Flight info
| Callsign | BBB078 |
|---|---|
| Flight time | 2h 56m |
| Altitude | 35000 |
| Route | PNDAH2 TCATE DCT PPE UJ7 HMO UT18 NABLA/N0446F370 UT18 NABAS UT49 DGO UJ5 ZCL UT130 DARAN DARAN3A |
| Aircraft | A21N/M-SDE3FGHIRWY/LB1 |
Departure
| Time | 2026-04-22 13:46 |
|---|---|
| Airport | Los Angeles International Airport (KLAX) |
Arrival
| Time | 2026-04-22 16:42 |
|---|---|
| Airport | Mexico City Benito Juárez International Airport (MMMX) |
| Time | Latitude | Longitude | Altitude | Speed | Heading |
|---|---|---|---|---|---|
| 2026-04-22 13:23 | 33.94591 | -118.41482 | 127 ft | 0 kts | 239° |
| 2026-04-22 13:32 | 33.94594 | -118.41476 | 127 ft | 2 kts | 239° |
| 2026-04-22 13:33 | 33.94601 | -118.41460 | 127 ft | 2 kts | 254° |
| 2026-04-22 13:33 | 33.94604 | -118.41441 | 127 ft | 2 kts | 267° |
| 2026-04-22 13:33 | 33.94603 | -118.41424 | 127 ft | 2 kts | 282° |
| 2026-04-22 13:33 | 33.94599 | -118.41406 | 127 ft | 2 kts | 296° |
| 2026-04-22 13:34 | 33.94591 | -118.41391 | 127 ft | 2 kts | 310° |
| 2026-04-22 13:34 | 33.94581 | -118.41379 | 127 ft | 2 kts | 324° |
| 2026-04-22 13:34 | 33.94568 | -118.41370 | 127 ft | 2 kts | 338° |
| 2026-04-22 13:34 | 33.94555 | -118.41365 | 127 ft | 0 kts | 351° |
| 2026-04-22 13:35 | 33.94548 | -118.41364 | 127 ft | 1 kts | 353° |
| 2026-04-22 13:38 | 33.94550 | -118.41364 | 127 ft | 0 kts | 353° |
| 2026-04-22 13:38 | 33.94556 | -118.41365 | 127 ft | 0 kts | 353° |
| 2026-04-22 13:38 | 33.94561 | -118.41366 | 127 ft | 0 kts | 353° |
| 2026-04-22 13:39 | 33.94570 | -118.41367 | 127 ft | 2 kts | 353° |
| 2026-04-22 13:39 | 33.94594 | -118.41370 | 127 ft | 3 kts | 353° |
| 2026-04-22 13:39 | 33.94622 | -118.41375 | 128 ft | 4 kts | 353° |
| 2026-04-22 13:39 | 33.94655 | -118.41379 | 128 ft | 5 kts | 353° |
| 2026-04-22 13:40 | 33.94692 | -118.41385 | 128 ft | 5 kts | 353° |
| 2026-04-22 13:40 | 33.94733 | -118.41391 | 128 ft | 6 kts | 353° |
| 2026-04-22 13:40 | 33.94775 | -118.41383 | 128 ft | 6 kts | 37° |
| 2026-04-22 13:40 | 33.94790 | -118.41332 | 129 ft | 6 kts | 80° |
| 2026-04-22 13:41 | 33.94797 | -118.41280 | 129 ft | 6 kts | 82° |
| 2026-04-22 13:41 | 33.94803 | -118.41224 | 130 ft | 7 kts | 83° |
| 2026-04-22 13:41 | 33.94811 | -118.41135 | 130 ft | 13 kts | 84° |
| 2026-04-22 13:41 | 33.94824 | -118.41009 | 130 ft | 16 kts | 82° |
| 2026-04-22 13:42 | 33.94838 | -118.40869 | 129 ft | 17 kts | 83° |
| 2026-04-22 13:42 | 33.94852 | -118.40726 | 128 ft | 17 kts | 84° |
| 2026-04-22 13:42 | 33.94867 | -118.40579 | 127 ft | 17 kts | 83° |
| 2026-04-22 13:42 | 33.94883 | -118.40427 | 126 ft | 18 kts | 82° |
| 2026-04-22 13:43 | 33.94899 | -118.40275 | 124 ft | 18 kts | 83° |
| 2026-04-22 13:43 | 33.94916 | -118.40116 | 123 ft | 19 kts | 83° |
| 2026-04-22 13:43 | 33.94932 | -118.39971 | 120 ft | 16 kts | 79° |
| 2026-04-22 13:43 | 33.95011 | -118.39914 | 118 ft | 15 kts | 356° |
| 2026-04-22 13:44 | 33.95044 | -118.39957 | 118 ft | 7 kts | 261° |
| 2026-04-22 13:44 | 33.95042 | -118.39973 | 118 ft | 0 kts | 260° |
| 2026-04-22 13:45 | 33.95042 | -118.39974 | 118 ft | 0 kts | 260° |
| 2026-04-22 13:45 | 33.95018 | -118.40194 | 121 ft | 66 kts | 264° |
| 2026-04-22 13:45 | 33.94929 | -118.41065 | 130 ft | 141 kts | 263° |
| 2026-04-22 13:45 | 33.94790 | -118.42450 | 418 ft | 177 kts | 264° |
| 2026-04-22 13:46 | 33.94644 | -118.43878 | 1239 ft | 177 kts | 264° |
| 2026-04-22 13:46 | 33.94485 | -118.45394 | 1821 ft | 191 kts | 264° |
| 2026-04-22 13:46 | 33.94353 | -118.47041 | 2362 ft | 208 kts | 268° |
| 2026-04-22 13:46 | 33.94290 | -118.48862 | 2841 ft | 229 kts | 269° |
| 2026-04-22 13:47 | 33.94217 | -118.50835 | 3493 ft | 244 kts | 266° |
| 2026-04-22 13:47 | 33.94067 | -118.52856 | 4435 ft | 245 kts | 266° |
| 2026-04-22 13:47 | 33.93909 | -118.54867 | 5393 ft | 244 kts | 266° |
| 2026-04-22 13:47 | 33.93750 | -118.56879 | 6290 ft | 245 kts | 267° |
| 2026-04-22 13:48 | 33.93589 | -118.58953 | 7002 ft | 254 kts | 266° |
| 2026-04-22 13:48 | 33.93282 | -118.61053 | 7675 ft | 265 kts | 250° |
| 2026-04-22 13:48 | 33.92209 | -118.62869 | 8511 ft | 273 kts | 225° |
| 2026-04-22 13:48 | 33.90544 | -118.63954 | 9340 ft | 284 kts | 200° |
| 2026-04-22 13:49 | 33.88537 | -118.64108 | 10130 ft | 294 kts | 182° |
| 2026-04-22 13:49 | 33.86567 | -118.63947 | 10769 ft | 301 kts | 182° |
| 2026-04-22 13:49 | 33.84401 | -118.63518 | 11129 ft | 325 kts | 169° |
| 2026-04-22 13:49 | 33.82287 | -118.62402 | 11478 ft | 349 kts | 154° |
| 2026-04-22 13:50 | 33.80241 | -118.60780 | 12098 ft | 357 kts | 150° |
| 2026-04-22 13:50 | 33.78196 | -118.59057 | 12816 ft | 361 kts | 150° |
| 2026-04-22 13:50 | 33.76108 | -118.57310 | 13521 ft | 364 kts | 151° |
| 2026-04-22 13:50 | 33.74039 | -118.55608 | 14178 ft | 367 kts | 151° |
| 2026-04-22 13:51 | 33.71917 | -118.53873 | 14815 ft | 372 kts | 150° |
| 2026-04-22 13:51 | 33.69954 | -118.51820 | 15417 ft | 383 kts | 137° |
| 2026-04-22 13:51 | 33.68381 | -118.49214 | 16054 ft | 392 kts | 123° |
| 2026-04-22 13:51 | 33.67088 | -118.46287 | 16689 ft | 397 kts | 120° |
| 2026-04-22 13:52 | 33.65853 | -118.43317 | 17262 ft | 402 kts | 120° |
| 2026-04-22 13:52 | 33.64607 | -118.40321 | 17852 ft | 406 kts | 120° |
| 2026-04-22 13:52 | 33.63338 | -118.37302 | 18403 ft | 410 kts | 121° |
| 2026-04-22 13:52 | 33.62033 | -118.34237 | 18978 ft | 412 kts | 121° |
| 2026-04-22 13:53 | 33.60720 | -118.31181 | 19557 ft | 415 kts | 121° |
| 2026-04-22 13:53 | 33.59394 | -118.28108 | 20111 ft | 418 kts | 121° |
| 2026-04-22 13:53 | 33.58055 | -118.25004 | 20599 ft | 422 kts | 121° |
| 2026-04-22 13:53 | 33.56700 | -118.21872 | 21104 ft | 426 kts | 121° |
| 2026-04-22 13:54 | 33.55341 | -118.18733 | 21625 ft | 429 kts | 122° |
| 2026-04-22 13:54 | 33.53954 | -118.15530 | 22120 ft | 432 kts | 121° |
| 2026-04-22 13:54 | 33.52581 | -118.12351 | 22629 ft | 434 kts | 122° |
| 2026-04-22 13:54 | 33.51202 | -118.09141 | 23108 ft | 437 kts | 121° |
| 2026-04-22 13:55 | 33.49812 | -118.05911 | 23572 ft | 440 kts | 122° |
| 2026-04-22 13:55 | 33.48405 | -118.02661 | 24041 ft | 442 kts | 123° |
| 2026-04-22 13:55 | 33.46130 | -117.98616 | 24650 ft | 439 kts | 135° |
| 2026-04-22 13:55 | 33.44751 | -117.96795 | 24956 ft | 436 kts | 141° |
| 2026-04-22 13:56 | 33.42543 | -117.94353 | 25403 ft | 435 kts | 144° |
| 2026-04-22 13:56 | 33.40260 | -117.91967 | 25790 ft | 439 kts | 145° |
| 2026-04-22 13:56 | 33.37962 | -117.89576 | 26192 ft | 442 kts | 145° |
| 2026-04-22 13:56 | 33.35618 | -117.87126 | 26639 ft | 444 kts | 144° |
| 2026-04-22 13:57 | 33.33313 | -117.84699 | 27039 ft | 446 kts | 144° |
| 2026-04-22 13:57 | 33.31001 | -117.82253 | 27416 ft | 448 kts | 144° |
| 2026-04-22 13:57 | 33.28666 | -117.79782 | 27814 ft | 450 kts | 145° |
| 2026-04-22 13:57 | 33.26297 | -117.77278 | 28181 ft | 452 kts | 144° |
| 2026-04-22 13:58 | 33.23944 | -117.74792 | 28484 ft | 456 kts | 144° |
| 2026-04-22 13:58 | 33.21561 | -117.72271 | 28844 ft | 458 kts | 144° |
| 2026-04-22 13:58 | 33.19221 | -117.69720 | 29167 ft | 463 kts | 140° |
| 2026-04-22 13:58 | 33.17110 | -117.66775 | 29434 ft | 473 kts | 131° |
| 2026-04-22 13:59 | 33.15362 | -117.63428 | 29740 ft | 481 kts | 121° |
| 2026-04-22 13:59 | 33.14019 | -117.59737 | 30001 ft | 488 kts | 114° |
| 2026-04-22 13:59 | 33.12893 | -117.55936 | 30293 ft | 491 kts | 112° |
| 2026-04-22 13:59 | 33.11798 | -117.52068 | 30558 ft | 494 kts | 112° |
| 2026-04-22 14:00 | 33.10691 | -117.48173 | 30815 ft | 496 kts | 112° |
| 2026-04-22 14:00 | 33.09567 | -117.44273 | 31143 ft | 497 kts | 112° |
| 2026-04-22 14:00 | 33.08439 | -117.40398 | 31498 ft | 496 kts | 112° |
| 2026-04-22 14:00 | 33.07306 | -117.36541 | 31855 ft | 496 kts | 113° |
| 2026-04-22 14:01 | 33.06170 | -117.32685 | 32219 ft | 494 kts | 114° |
| 2026-04-22 14:01 | 33.05018 | -117.28805 | 32555 ft | 494 kts | 114° |
| 2026-04-22 14:01 | 33.03876 | -117.24957 | 32837 ft | 494 kts | 114° |
| 2026-04-22 14:01 | 33.02747 | -117.21159 | 33115 ft | 493 kts | 114° |
| 2026-04-22 14:02 | 33.01599 | -117.17312 | 33402 ft | 493 kts | 114° |
| 2026-04-22 14:02 | 33.00451 | -117.13474 | 33645 ft | 494 kts | 114° |
| 2026-04-22 14:02 | 32.99296 | -117.09615 | 33886 ft | 494 kts | 114° |
| 2026-04-22 14:02 | 32.98141 | -117.05753 | 34102 ft | 496 kts | 114° |
| 2026-04-22 14:03 | 32.96983 | -117.01884 | 34320 ft | 497 kts | 113° |
| 2026-04-22 14:03 | 32.95821 | -116.98013 | 34476 ft | 499 kts | 114° |
| 2026-04-22 14:03 | 32.94656 | -116.94133 | 34635 ft | 501 kts | 114° |
| 2026-04-22 14:03 | 32.93492 | -116.90249 | 34825 ft | 502 kts | 113° |
| 2026-04-22 14:04 | 32.92328 | -116.86377 | 35015 ft | 503 kts | 114° |
| 2026-04-22 14:04 | 32.91145 | -116.82454 | 35135 ft | 506 kts | 114° |
| 2026-04-22 14:04 | 32.88742 | -116.74510 | 35130 ft | 516 kts | 114° |
| 2026-04-22 14:05 | 32.86296 | -116.66442 | 35122 ft | 524 kts | 114° |
| 2026-04-22 14:06 | 32.82588 | -116.54215 | 35094 ft | 525 kts | 113° |
| 2026-04-22 14:06 | 32.79884 | -116.46219 | 35119 ft | 522 kts | 120° |
| 2026-04-22 14:07 | 32.76046 | -116.37283 | 35120 ft | 521 kts | 122° |
| 2026-04-22 14:07 | 32.73248 | -116.30920 | 35117 ft | 522 kts | 122° |
| 2026-04-22 14:08 | 32.69911 | -116.23306 | 35119 ft | 522 kts | 122° |
| 2026-04-22 14:08 | 32.66571 | -116.15666 | 35111 ft | 523 kts | 122° |
| 2026-04-22 14:09 | 32.63244 | -116.08070 | 35111 ft | 524 kts | 122° |
| 2026-04-22 14:09 | 32.59881 | -116.00413 | 35117 ft | 525 kts | 122° |
| 2026-04-22 14:10 | 32.56506 | -115.92722 | 35107 ft | 524 kts | 122° |
| 2026-04-22 14:10 | 32.53154 | -115.85108 | 35089 ft | 522 kts | 122° |
| 2026-04-22 14:11 | 32.49793 | -115.77499 | 35078 ft | 523 kts | 122° |
| 2026-04-22 14:11 | 32.46453 | -115.69936 | 35076 ft | 522 kts | 122° |
| 2026-04-22 14:12 | 32.43080 | -115.62345 | 35079 ft | 523 kts | 122° |
| 2026-04-22 14:12 | 32.39716 | -115.54765 | 35064 ft | 521 kts | 122° |
| 2026-04-22 14:13 | 32.36337 | -115.47182 | 35061 ft | 522 kts | 121° |
| 2026-04-22 14:13 | 32.32948 | -115.39585 | 35062 ft | 524 kts | 121° |
| 2026-04-22 14:14 | 32.29558 | -115.32003 | 35045 ft | 523 kts | 122° |
| 2026-04-22 14:14 | 32.26168 | -115.24425 | 35055 ft | 523 kts | 122° |
| 2026-04-22 14:15 | 32.22774 | -115.16866 | 35041 ft | 522 kts | 122° |
| 2026-04-22 14:15 | 32.19379 | -115.09315 | 35031 ft | 520 kts | 122° |
| 2026-04-22 14:16 | 32.15413 | -115.00528 | 35019 ft | 522 kts | 122° |
| 2026-04-22 14:16 | 32.12575 | -114.94241 | 35020 ft | 521 kts | 121° |
| 2026-04-22 14:17 | 32.09175 | -114.86734 | 35018 ft | 522 kts | 121° |
| 2026-04-22 14:17 | 32.05762 | -114.79211 | 35016 ft | 523 kts | 121° |
| 2026-04-22 14:18 | 32.02338 | -114.71671 | 35017 ft | 523 kts | 122° |
| 2026-04-22 14:18 | 31.98898 | -114.64118 | 35014 ft | 523 kts | 122° |
| 2026-04-22 14:19 | 31.95456 | -114.56573 | 35021 ft | 524 kts | 122° |
| 2026-04-22 14:19 | 31.92024 | -114.49071 | 35015 ft | 525 kts | 122° |
| 2026-04-22 14:20 | 31.86845 | -114.37769 | 35020 ft | 525 kts | 121° |
| 2026-04-22 14:20 | 31.83385 | -114.30234 | 35016 ft | 524 kts | 122° |
| 2026-04-22 14:21 | 31.78177 | -114.18939 | 35020 ft | 525 kts | 122° |
| 2026-04-22 14:22 | 31.72944 | -114.07617 | 35025 ft | 527 kts | 122° |
| 2026-04-22 14:23 | 31.67681 | -113.96261 | 35023 ft | 528 kts | 121° |
| 2026-04-22 14:23 | 31.64189 | -113.88745 | 35016 ft | 527 kts | 122° |
| 2026-04-22 14:24 | 31.60690 | -113.81243 | 35012 ft | 526 kts | 122° |
| 2026-04-22 14:24 | 31.57187 | -113.73731 | 35009 ft | 526 kts | 122° |
| 2026-04-22 14:25 | 31.53671 | -113.66214 | 35020 ft | 527 kts | 122° |
| 2026-04-22 14:25 | 31.50145 | -113.58695 | 35024 ft | 528 kts | 121° |
| 2026-04-22 14:26 | 31.46613 | -113.51155 | 35027 ft | 527 kts | 122° |
| 2026-04-22 14:26 | 31.43104 | -113.43696 | 35021 ft | 527 kts | 121° |
| 2026-04-22 14:27 | 31.39467 | -113.36301 | 35017 ft | 524 kts | 126° |
| 2026-04-22 14:27 | 31.35128 | -113.29426 | 35016 ft | 521 kts | 135° |
| 2026-04-22 14:28 | 31.30133 | -113.23366 | 35016 ft | 515 kts | 143° |
| 2026-04-22 14:28 | 31.24753 | -113.17892 | 35006 ft | 513 kts | 146° |
| 2026-04-22 14:29 | 31.19344 | -113.12449 | 35009 ft | 514 kts | 145° |
| 2026-04-22 14:29 | 31.13970 | -113.07008 | 35012 ft | 514 kts | 145° |
| 2026-04-22 14:30 | 31.08577 | -113.01542 | 35006 ft | 514 kts | 144° |
| 2026-04-22 14:30 | 31.03180 | -112.96075 | 34999 ft | 516 kts | 144° |
| 2026-04-22 14:31 | 30.97753 | -112.90580 | 34997 ft | 517 kts | 144° |
| 2026-04-22 14:31 | 30.92326 | -112.85097 | 34998 ft | 517 kts | 144° |
| 2026-04-22 14:32 | 30.86921 | -112.79647 | 35001 ft | 516 kts | 144° |
| 2026-04-22 14:32 | 30.81493 | -112.74176 | 35003 ft | 515 kts | 144° |
| 2026-04-22 14:33 | 30.76065 | -112.68722 | 35006 ft | 516 kts | 144° |
| 2026-04-22 14:33 | 30.70654 | -112.63291 | 35007 ft | 517 kts | 144° |
| 2026-04-22 14:34 | 30.65188 | -112.57809 | 35005 ft | 518 kts | 144° |
| 2026-04-22 14:34 | 30.59736 | -112.52352 | 35014 ft | 518 kts | 144° |
| 2026-04-22 14:35 | 30.54291 | -112.46911 | 35020 ft | 519 kts | 144° |
| 2026-04-22 14:35 | 30.48834 | -112.41463 | 35015 ft | 518 kts | 144° |
| 2026-04-22 14:36 | 30.43370 | -112.36020 | 35020 ft | 520 kts | 144° |
| 2026-04-22 14:36 | 30.37880 | -112.30559 | 35035 ft | 519 kts | 145° |
| 2026-04-22 14:37 | 30.32393 | -112.25108 | 35046 ft | 519 kts | 145° |
| 2026-04-22 14:37 | 30.26946 | -112.19710 | 35062 ft | 520 kts | 144° |
| 2026-04-22 14:38 | 30.21430 | -112.14248 | 35066 ft | 521 kts | 144° |
| 2026-04-22 14:38 | 30.15948 | -112.08828 | 35077 ft | 521 kts | 144° |
| 2026-04-22 14:39 | 30.10452 | -112.03398 | 35086 ft | 520 kts | 144° |
| 2026-04-22 14:39 | 30.04938 | -111.97961 | 35098 ft | 520 kts | 144° |
| 2026-04-22 14:40 | 29.96709 | -111.89862 | 35106 ft | 521 kts | 144° |
| 2026-04-22 14:40 | 29.91175 | -111.84428 | 35110 ft | 521 kts | 144° |
| 2026-04-22 14:41 | 29.85685 | -111.79041 | 35107 ft | 521 kts | 144° |
| 2026-04-22 14:41 | 29.80140 | -111.73616 | 35107 ft | 522 kts | 144° |
| 2026-04-22 14:42 | 29.74638 | -111.68239 | 35105 ft | 520 kts | 144° |
| 2026-04-22 14:42 | 29.69111 | -111.62843 | 35099 ft | 520 kts | 144° |
| 2026-04-22 14:43 | 29.63596 | -111.57469 | 35086 ft | 521 kts | 144° |
| 2026-04-22 14:43 | 29.57175 | -111.51215 | 35077 ft | 521 kts | 144° |
| 2026-04-22 14:44 | 29.52541 | -111.46712 | 35075 ft | 521 kts | 144° |
| 2026-04-22 14:44 | 29.47019 | -111.41348 | 35069 ft | 521 kts | 144° |
| 2026-04-22 14:45 | 29.41502 | -111.36001 | 35065 ft | 521 kts | 144° |
| 2026-04-22 14:45 | 29.35940 | -111.30629 | 35061 ft | 521 kts | 145° |
| 2026-04-22 14:46 | 29.30425 | -111.25308 | 35057 ft | 521 kts | 145° |
| 2026-04-22 14:46 | 29.24881 | -111.19970 | 35048 ft | 522 kts | 144° |
| 2026-04-22 14:47 | 29.19332 | -111.14625 | 35054 ft | 522 kts | 145° |
| 2026-04-22 14:47 | 29.13778 | -111.09290 | 35055 ft | 523 kts | 145° |
| 2026-04-22 14:48 | 29.08328 | -111.03787 | 35054 ft | 525 kts | 140° |
| 2026-04-22 14:48 | 29.03253 | -110.97806 | 35048 ft | 527 kts | 137° |
| 2026-04-22 14:49 | 28.98188 | -110.91734 | 35050 ft | 526 kts | 138° |
| 2026-04-22 14:49 | 28.93126 | -110.85707 | 35054 ft | 526 kts | 137° |
| 2026-04-22 14:50 | 28.88044 | -110.79680 | 35052 ft | 527 kts | 137° |
| 2026-04-22 14:50 | 28.82987 | -110.73691 | 35058 ft | 527 kts | 137° |
| 2026-04-22 14:51 | 28.77905 | -110.67680 | 35057 ft | 527 kts | 137° |
| 2026-04-22 14:51 | 28.72822 | -110.61693 | 35065 ft | 526 kts | 138° |
| 2026-04-22 14:52 | 28.67696 | -110.55739 | 35065 ft | 526 kts | 138° |
| 2026-04-22 14:52 | 28.62568 | -110.49787 | 35070 ft | 526 kts | 138° |
| 2026-04-22 14:53 | 28.57449 | -110.43846 | 35068 ft | 526 kts | 138° |
| 2026-04-22 14:53 | 28.52359 | -110.37949 | 35062 ft | 527 kts | 138° |
| 2026-04-22 14:54 | 28.47193 | -110.31971 | 35057 ft | 527 kts | 138° |
| 2026-04-22 14:54 | 28.42063 | -110.26038 | 35060 ft | 527 kts | 138° |
| 2026-04-22 14:55 | 28.36928 | -110.20109 | 35059 ft | 527 kts | 138° |
| 2026-04-22 14:55 | 28.30942 | -110.13213 | 35061 ft | 527 kts | 138° |
| 2026-04-22 14:56 | 28.26645 | -110.08270 | 35060 ft | 528 kts | 138° |
| 2026-04-22 14:56 | 28.21508 | -110.02362 | 35054 ft | 528 kts | 138° |
| 2026-04-22 14:57 | 28.16336 | -109.96432 | 35047 ft | 529 kts | 137° |
| 2026-04-22 14:57 | 28.10349 | -109.89439 | 35050 ft | 530 kts | 137° |
| 2026-04-22 14:58 | 28.05285 | -109.83486 | 35052 ft | 528 kts | 137° |
| 2026-04-22 14:58 | 28.01001 | -109.78471 | 35045 ft | 529 kts | 137° |
| 2026-04-22 14:59 | 27.95922 | -109.72539 | 35046 ft | 529 kts | 137° |
| 2026-04-22 14:59 | 27.90904 | -109.66680 | 35055 ft | 528 kts | 137° |
| 2026-04-22 15:00 | 27.85788 | -109.60720 | 35069 ft | 527 kts | 137° |
| 2026-04-22 15:00 | 27.80697 | -109.54797 | 35081 ft | 527 kts | 137° |
| 2026-04-22 15:01 | 27.74742 | -109.47877 | 35102 ft | 526 kts | 137° |
| 2026-04-22 15:01 | 27.70491 | -109.42948 | 35098 ft | 526 kts | 137° |
| 2026-04-22 15:02 | 27.65400 | -109.37049 | 35093 ft | 527 kts | 137° |
| 2026-04-22 15:02 | 27.60278 | -109.31119 | 35087 ft | 527 kts | 138° |
| 2026-04-22 15:03 | 27.55166 | -109.25252 | 35087 ft | 526 kts | 138° |
| 2026-04-22 15:03 | 27.50017 | -109.19402 | 35098 ft | 526 kts | 138° |
| 2026-04-22 15:04 | 27.44891 | -109.13580 | 35117 ft | 525 kts | 138° |
| 2026-04-22 15:04 | 27.39726 | -109.07718 | 35127 ft | 525 kts | 138° |
| 2026-04-22 15:05 | 27.34620 | -109.01927 | 35123 ft | 526 kts | 138° |
| 2026-04-22 15:05 | 27.29471 | -108.96089 | 35113 ft | 526 kts | 138° |
| 2026-04-22 15:06 | 27.24314 | -108.90257 | 35107 ft | 526 kts | 138° |
| 2026-04-22 15:06 | 27.19166 | -108.84442 | 35119 ft | 526 kts | 138° |
| 2026-04-22 15:07 | 27.14019 | -108.78634 | 35124 ft | 526 kts | 138° |
| 2026-04-22 15:07 | 27.08848 | -108.72808 | 35120 ft | 526 kts | 137° |
| 2026-04-22 15:08 | 27.03703 | -108.67017 | 35120 ft | 525 kts | 137° |
| 2026-04-22 15:08 | 26.98539 | -108.61211 | 35111 ft | 526 kts | 138° |
| 2026-04-22 15:09 | 26.93384 | -108.55428 | 35105 ft | 526 kts | 137° |
| 2026-04-22 15:09 | 26.88202 | -108.49622 | 35095 ft | 525 kts | 137° |
| 2026-04-22 15:10 | 26.83048 | -108.43852 | 35097 ft | 526 kts | 137° |
| 2026-04-22 15:10 | 26.77865 | -108.38058 | 35105 ft | 525 kts | 137° |
| 2026-04-22 15:11 | 26.72679 | -108.32268 | 35105 ft | 524 kts | 138° |
| 2026-04-22 15:11 | 26.67523 | -108.26519 | 35122 ft | 524 kts | 138° |
| 2026-04-22 15:12 | 26.62375 | -108.20789 | 35148 ft | 524 kts | 138° |
| 2026-04-22 15:12 | 26.57486 | -108.14748 | 35171 ft | 527 kts | 130° |
| 2026-04-22 15:13 | 26.52457 | -108.07050 | 35196 ft | 527 kts | 127° |
| 2026-04-22 15:13 | 26.48920 | -108.01471 | 35203 ft | 527 kts | 127° |
| 2026-04-22 15:14 | 26.44693 | -107.94851 | 35216 ft | 525 kts | 127° |
| 2026-04-22 15:14 | 26.40442 | -107.88235 | 35243 ft | 525 kts | 127° |
| 2026-04-22 15:15 | 26.36200 | -107.81647 | 35242 ft | 525 kts | 127° |
| 2026-04-22 15:15 | 26.31943 | -107.75048 | 35236 ft | 524 kts | 127° |
| 2026-04-22 15:16 | 26.27677 | -107.68445 | 35226 ft | 524 kts | 127° |
| 2026-04-22 15:16 | 26.23423 | -107.61865 | 35254 ft | 524 kts | 127° |
| 2026-04-22 15:17 | 26.19192 | -107.55337 | 35285 ft | 524 kts | 127° |
| 2026-04-22 15:17 | 26.14912 | -107.48741 | 35315 ft | 524 kts | 127° |
| 2026-04-22 15:18 | 26.10668 | -107.42204 | 35328 ft | 524 kts | 127° |
| 2026-04-22 15:18 | 26.05673 | -107.34530 | 35323 ft | 524 kts | 127° |
| 2026-04-22 15:19 | 26.02111 | -107.29064 | 35323 ft | 524 kts | 127° |
| 2026-04-22 15:19 | 25.97111 | -107.21397 | 35325 ft | 524 kts | 127° |
| 2026-04-22 15:20 | 25.92843 | -107.14864 | 35361 ft | 523 kts | 127° |
| 2026-04-22 15:20 | 25.89314 | -107.09470 | 35387 ft | 522 kts | 127° |
| 2026-04-22 15:21 | 25.85025 | -107.02916 | 35388 ft | 521 kts | 127° |
| 2026-04-22 15:21 | 25.80775 | -106.96410 | 35412 ft | 522 kts | 127° |
| 2026-04-22 15:22 | 25.76520 | -106.89902 | 35411 ft | 522 kts | 127° |
| 2026-04-22 15:22 | 25.72246 | -106.83371 | 35412 ft | 522 kts | 127° |
| 2026-04-22 15:23 | 25.68004 | -106.76901 | 35420 ft | 523 kts | 127° |
| 2026-04-22 15:23 | 25.63717 | -106.70373 | 35424 ft | 523 kts | 127° |
| 2026-04-22 15:24 | 25.59431 | -106.63854 | 35442 ft | 523 kts | 127° |
| 2026-04-22 15:24 | 25.55149 | -106.57352 | 35448 ft | 524 kts | 127° |
| 2026-04-22 15:25 | 25.50139 | -106.49751 | 35457 ft | 523 kts | 127° |
| 2026-04-22 15:25 | 25.46557 | -106.44323 | 35458 ft | 524 kts | 127° |
| 2026-04-22 15:26 | 25.42266 | -106.37830 | 35470 ft | 524 kts | 127° |
| 2026-04-22 15:26 | 25.37924 | -106.31405 | 35474 ft | 524 kts | 128° |
| 2026-04-22 15:27 | 25.33537 | -106.24957 | 35481 ft | 525 kts | 128° |
| 2026-04-22 15:27 | 25.29150 | -106.18509 | 35490 ft | 525 kts | 128° |
| 2026-04-22 15:28 | 25.24763 | -106.12057 | 35497 ft | 524 kts | 128° |
| 2026-04-22 15:28 | 25.20382 | -106.05624 | 35502 ft | 524 kts | 128° |
| 2026-04-22 15:29 | 25.15289 | -105.98159 | 35516 ft | 525 kts | 128° |
| 2026-04-22 15:30 | 25.09447 | -105.89600 | 35520 ft | 525 kts | 129° |
| 2026-04-22 15:30 | 25.05041 | -105.83160 | 35524 ft | 525 kts | 128° |
| 2026-04-22 15:31 | 25.00633 | -105.76730 | 35516 ft | 525 kts | 128° |
| 2026-04-22 15:31 | 24.96252 | -105.70340 | 35508 ft | 524 kts | 128° |
| 2026-04-22 15:32 | 24.91859 | -105.63939 | 35504 ft | 524 kts | 128° |
| 2026-04-22 15:32 | 24.87442 | -105.57510 | 35491 ft | 524 kts | 128° |
| 2026-04-22 15:33 | 24.83047 | -105.51126 | 35483 ft | 524 kts | 128° |
| 2026-04-22 15:33 | 24.78669 | -105.44768 | 35482 ft | 523 kts | 128° |
| 2026-04-22 15:34 | 24.74293 | -105.38422 | 35479 ft | 523 kts | 128° |
| 2026-04-22 15:34 | 24.69888 | -105.32046 | 35470 ft | 523 kts | 128° |
| 2026-04-22 15:35 | 24.65484 | -105.25673 | 35464 ft | 523 kts | 128° |
| 2026-04-22 15:35 | 24.61057 | -105.19295 | 35465 ft | 523 kts | 128° |
| 2026-04-22 15:36 | 24.56671 | -105.12986 | 35474 ft | 522 kts | 128° |
| 2026-04-22 15:36 | 24.52237 | -105.06612 | 35490 ft | 523 kts | 128° |
| 2026-04-22 15:37 | 24.47848 | -105.00310 | 35506 ft | 522 kts | 128° |
| 2026-04-22 15:37 | 24.43435 | -104.93977 | 35505 ft | 523 kts | 128° |
| 2026-04-22 15:38 | 24.39002 | -104.87629 | 35496 ft | 522 kts | 128° |
| 2026-04-22 15:38 | 24.32388 | -104.78166 | 35471 ft | 521 kts | 128° |
| 2026-04-22 15:39 | 24.27259 | -104.70844 | 35445 ft | 521 kts | 128° |
| 2026-04-22 15:39 | 24.22839 | -104.64532 | 35416 ft | 521 kts | 128° |
| 2026-04-22 15:40 | 24.19185 | -104.59331 | 35373 ft | 521 kts | 128° |
| 2026-04-22 15:40 | 24.14039 | -104.52018 | 35345 ft | 521 kts | 128° |
| 2026-04-22 15:41 | 24.10399 | -104.46697 | 35337 ft | 522 kts | 126° |
| 2026-04-22 15:41 | 24.05392 | -104.39242 | 35363 ft | 521 kts | 126° |
| 2026-04-22 15:42 | 24.01103 | -104.32877 | 35386 ft | 521 kts | 127° |
| 2026-04-22 15:42 | 23.96808 | -104.26526 | 35400 ft | 521 kts | 127° |
| 2026-04-22 15:43 | 23.92498 | -104.20160 | 35420 ft | 520 kts | 127° |
| 2026-04-22 15:43 | 23.88931 | -104.14899 | 35413 ft | 520 kts | 126° |
| 2026-04-22 15:44 | 23.83895 | -104.07480 | 35415 ft | 519 kts | 126° |
| 2026-04-22 15:44 | 23.80312 | -104.02211 | 35412 ft | 518 kts | 127° |
| 2026-04-22 15:45 | 23.76036 | -103.95927 | 35411 ft | 518 kts | 126° |
| 2026-04-22 15:45 | 23.71035 | -103.88584 | 35429 ft | 517 kts | 127° |
| 2026-04-22 15:46 | 23.67470 | -103.83357 | 35443 ft | 518 kts | 126° |
| 2026-04-22 15:46 | 23.62511 | -103.76079 | 35454 ft | 516 kts | 127° |
| 2026-04-22 15:47 | 23.58217 | -103.69823 | 35460 ft | 517 kts | 127° |
| 2026-04-22 15:47 | 23.53926 | -103.63570 | 35469 ft | 517 kts | 126° |
| 2026-04-22 15:48 | 23.49644 | -103.57329 | 35485 ft | 515 kts | 127° |
| 2026-04-22 15:48 | 23.46074 | -103.52137 | 35498 ft | 515 kts | 127° |
| 2026-04-22 15:49 | 23.41043 | -103.44817 | 35715 ft | 517 kts | 127° |
| 2026-04-22 15:49 | 23.38898 | -103.41702 | 36042 ft | 515 kts | 127° |
| 2026-04-22 15:49 | 23.37477 | -103.39640 | 36260 ft | 513 kts | 126° |
| 2026-04-22 15:50 | 23.34614 | -103.35482 | 36573 ft | 513 kts | 126° |
| 2026-04-22 15:50 | 23.33200 | -103.33431 | 36711 ft | 513 kts | 127° |
| 2026-04-22 15:50 | 23.30360 | -103.29308 | 37003 ft | 511 kts | 127° |
| 2026-04-22 15:50 | 23.28228 | -103.26219 | 37217 ft | 510 kts | 127° |
| 2026-04-22 15:51 | 23.26103 | -103.23142 | 37392 ft | 510 kts | 127° |
| 2026-04-22 15:51 | 23.23979 | -103.20064 | 37481 ft | 510 kts | 127° |
| 2026-04-22 15:51 | 23.19704 | -103.13886 | 37484 ft | 509 kts | 127° |
| 2026-04-22 15:52 | 23.16168 | -103.08782 | 37491 ft | 509 kts | 127° |
| 2026-04-22 15:52 | 23.11910 | -103.02639 | 37507 ft | 508 kts | 127° |
| 2026-04-22 15:53 | 23.07669 | -102.96532 | 37526 ft | 506 kts | 127° |
| 2026-04-22 15:53 | 23.02737 | -102.89435 | 37525 ft | 507 kts | 127° |
| 2026-04-22 15:54 | 22.99195 | -102.84344 | 37527 ft | 505 kts | 128° |
| 2026-04-22 15:54 | 22.94262 | -102.77271 | 37515 ft | 505 kts | 128° |
| 2026-04-22 15:55 | 22.89687 | -102.71533 | 37507 ft | 503 kts | 136° |
| 2026-04-22 15:55 | 22.84488 | -102.66462 | 37506 ft | 501 kts | 144° |
| 2026-04-22 15:56 | 22.79781 | -102.62820 | 37501 ft | 498 kts | 149° |
| 2026-04-22 15:56 | 22.73037 | -102.58016 | 37503 ft | 496 kts | 149° |
| 2026-04-22 15:57 | 22.68233 | -102.54584 | 37503 ft | 496 kts | 149° |
| 2026-04-22 15:57 | 22.61535 | -102.49779 | 37502 ft | 495 kts | 149° |
| 2026-04-22 15:58 | 22.55794 | -102.45660 | 37496 ft | 494 kts | 149° |
| 2026-04-22 15:58 | 22.51028 | -102.42242 | 37493 ft | 494 kts | 149° |
| 2026-04-22 15:59 | 22.44333 | -102.37444 | 37486 ft | 493 kts | 149° |
| 2026-04-22 15:59 | 22.39586 | -102.34047 | 37477 ft | 491 kts | 149° |
| 2026-04-22 16:00 | 22.32954 | -102.29303 | 37468 ft | 491 kts | 149° |
| 2026-04-22 16:00 | 22.27262 | -102.25237 | 37459 ft | 491 kts | 149° |
| 2026-04-22 16:01 | 22.21551 | -102.21161 | 37448 ft | 489 kts | 149° |
| 2026-04-22 16:01 | 22.15897 | -102.17127 | 37448 ft | 488 kts | 150° |
| 2026-04-22 16:02 | 22.11179 | -102.13770 | 37451 ft | 487 kts | 149° |
| 2026-04-22 16:02 | 22.05500 | -102.09728 | 37452 ft | 488 kts | 149° |
| 2026-04-22 16:03 | 21.98916 | -102.05044 | 37446 ft | 486 kts | 150° |
| 2026-04-22 16:03 | 21.93280 | -102.01041 | 37436 ft | 487 kts | 150° |
| 2026-04-22 16:04 | 21.87603 | -101.97013 | 37435 ft | 488 kts | 150° |
| 2026-04-22 16:04 | 21.82867 | -101.93655 | 37435 ft | 487 kts | 150° |
| 2026-04-22 16:05 | 21.76267 | -101.88980 | 37443 ft | 487 kts | 150° |
| 2026-04-22 16:05 | 21.70621 | -101.84982 | 37442 ft | 486 kts | 150° |
| 2026-04-22 16:06 | 21.65927 | -101.81667 | 37438 ft | 486 kts | 150° |
| 2026-04-22 16:06 | 21.60419 | -101.77424 | 37433 ft | 489 kts | 143° |
| 2026-04-22 16:07 | 21.54685 | -101.71478 | 37428 ft | 494 kts | 133° |
| 2026-04-22 16:07 | 21.50515 | -101.65576 | 37429 ft | 496 kts | 125° |
| 2026-04-22 16:08 | 21.46746 | -101.59399 | 37437 ft | 497 kts | 124° |
| 2026-04-22 16:08 | 21.43596 | -101.54226 | 37448 ft | 497 kts | 125° |
| 2026-04-22 16:09 | 21.39156 | -101.47002 | 37468 ft | 497 kts | 125° |
| 2026-04-22 16:09 | 21.35340 | -101.40820 | 37479 ft | 497 kts | 126° |
| 2026-04-22 16:10 | 21.31541 | -101.34672 | 37482 ft | 497 kts | 126° |
| 2026-04-22 16:10 | 21.27701 | -101.28469 | 37487 ft | 497 kts | 126° |
| 2026-04-22 16:11 | 21.23891 | -101.22321 | 37495 ft | 498 kts | 126° |
| 2026-04-22 16:11 | 21.20075 | -101.16166 | 37484 ft | 497 kts | 126° |
| 2026-04-22 16:12 | 21.16249 | -101.10001 | 37477 ft | 496 kts | 126° |
| 2026-04-22 16:12 | 21.12433 | -101.03861 | 37471 ft | 497 kts | 126° |
| 2026-04-22 16:13 | 21.09237 | -100.98725 | 37466 ft | 497 kts | 126° |
| 2026-04-22 16:13 | 21.04554 | -100.91710 | 37462 ft | 495 kts | 130° |
| 2026-04-22 16:14 | 21.00382 | -100.85890 | 37451 ft | 494 kts | 130° |
| 2026-04-22 16:14 | 20.96186 | -100.80045 | 37448 ft | 494 kts | 130° |
| 2026-04-22 16:15 | 20.92041 | -100.74260 | 37438 ft | 493 kts | 130° |
| 2026-04-22 16:15 | 20.87856 | -100.68424 | 37439 ft | 492 kts | 130° |
| 2026-04-22 16:16 | 20.83705 | -100.62638 | 37440 ft | 492 kts | 130° |
| 2026-04-22 16:16 | 20.79513 | -100.56803 | 37446 ft | 492 kts | 130° |
| 2026-04-22 16:17 | 20.75369 | -100.51037 | 37448 ft | 492 kts | 131° |
| 2026-04-22 16:17 | 20.71165 | -100.45201 | 37446 ft | 494 kts | 130° |
| 2026-04-22 16:18 | 20.67008 | -100.39431 | 37437 ft | 492 kts | 131° |
| 2026-04-22 16:18 | 20.62821 | -100.33621 | 37396 ft | 491 kts | 131° |
| 2026-04-22 16:19 | 20.58668 | -100.27870 | 37382 ft | 492 kts | 131° |
| 2026-04-22 16:19 | 20.54530 | -100.22139 | 36978 ft | 485 kts | 131° |
| 2026-04-22 16:20 | 20.52461 | -100.19284 | 36179 ft | 486 kts | 130° |
| 2026-04-22 16:20 | 20.50386 | -100.16426 | 35186 ft | 491 kts | 130° |
| 2026-04-22 16:20 | 20.48292 | -100.13538 | 34198 ft | 495 kts | 130° |
| 2026-04-22 16:20 | 20.46910 | -100.11633 | 33555 ft | 498 kts | 129° |
| 2026-04-22 16:21 | 20.44071 | -100.07720 | 32318 ft | 503 kts | 129° |
| 2026-04-22 16:21 | 20.41929 | -100.04762 | 31432 ft | 506 kts | 128° |
| 2026-04-22 16:21 | 20.40495 | -100.02783 | 30849 ft | 507 kts | 128° |
| 2026-04-22 16:21 | 20.37632 | -99.98839 | 29696 ft | 509 kts | 127° |
| 2026-04-22 16:22 | 20.33288 | -99.92849 | 27859 ft | 511 kts | 127° |
| 2026-04-22 16:22 | 20.31140 | -99.89885 | 26926 ft | 512 kts | 127° |
| 2026-04-22 16:22 | 20.28961 | -99.86880 | 25964 ft | 513 kts | 127° |
| 2026-04-22 16:23 | 20.24605 | -99.80890 | 23962 ft | 514 kts | 127° |
| 2026-04-22 16:23 | 20.22360 | -99.77957 | 23302 ft | 506 kts | 133° |
| 2026-04-22 16:23 | 20.19584 | -99.75732 | 22662 ft | 495 kts | 153° |
| 2026-04-22 16:24 | 20.16357 | -99.74572 | 22103 ft | 482 kts | 169° |
| 2026-04-22 16:24 | 20.09866 | -99.73474 | 21035 ft | 465 kts | 174° |
| 2026-04-22 16:24 | 20.06693 | -99.72963 | 20514 ft | 457 kts | 173° |
| 2026-04-22 16:25 | 20.03582 | -99.72417 | 20007 ft | 450 kts | 172° |
| 2026-04-22 16:25 | 19.97493 | -99.71255 | 19067 ft | 435 kts | 171° |
| 2026-04-22 16:25 | 19.94517 | -99.70665 | 18668 ft | 426 kts | 171° |
| 2026-04-22 16:26 | 19.91630 | -99.70091 | 18282 ft | 418 kts | 171° |
| 2026-04-22 16:26 | 19.88782 | -99.69524 | 17903 ft | 410 kts | 171° |
| 2026-04-22 16:26 | 19.86013 | -99.68967 | 17532 ft | 402 kts | 169° |
| 2026-04-22 16:26 | 19.84256 | -99.68408 | 17281 ft | 398 kts | 156° |
| 2026-04-22 16:27 | 19.82244 | -99.66898 | 17154 ft | 378 kts | 133° |
| 2026-04-22 16:27 | 19.80332 | -99.63955 | 17145 ft | 345 kts | 120° |
| 2026-04-22 16:27 | 19.79172 | -99.61809 | 17131 ft | 327 kts | 115° |
| 2026-04-22 16:27 | 19.78637 | -99.59560 | 17098 ft | 307 kts | 86° |
| 2026-04-22 16:28 | 19.79124 | -99.57436 | 17111 ft | 295 kts | 60° |
| 2026-04-22 16:28 | 19.80364 | -99.55725 | 17126 ft | 290 kts | 43° |
| 2026-04-22 16:28 | 19.81802 | -99.54229 | 17123 ft | 290 kts | 43° |
| 2026-04-22 16:28 | 19.83242 | -99.52714 | 17122 ft | 290 kts | 43° |
| 2026-04-22 16:29 | 19.84651 | -99.51192 | 17120 ft | 290 kts | 44° |
| 2026-04-22 16:29 | 19.86055 | -99.49648 | 17120 ft | 290 kts | 44° |
| 2026-04-22 16:29 | 19.87446 | -99.48109 | 17121 ft | 290 kts | 44° |
| 2026-04-22 16:29 | 19.88725 | -99.46453 | 17120 ft | 291 kts | 57° |
| 2026-04-22 16:30 | 19.89351 | -99.45170 | 17127 ft | 292 kts | 66° |
| 2026-04-22 16:30 | 19.90122 | -99.42425 | 17130 ft | 294 kts | 74° |
| 2026-04-22 16:30 | 19.90611 | -99.40320 | 17126 ft | 294 kts | 74° |
| 2026-04-22 16:30 | 19.91100 | -99.38217 | 17123 ft | 293 kts | 74° |
| 2026-04-22 16:31 | 19.91603 | -99.36119 | 17118 ft | 293 kts | 74° |
| 2026-04-22 16:31 | 19.92016 | -99.33998 | 17098 ft | 295 kts | 88° |
| 2026-04-22 16:31 | 19.91626 | -99.31850 | 17094 ft | 296 kts | 116° |
| 2026-04-22 16:31 | 19.90385 | -99.30133 | 17104 ft | 300 kts | 143° |
| 2026-04-22 16:32 | 19.88513 | -99.29131 | 17107 ft | 306 kts | 169° |
| 2026-04-22 16:32 | 19.86383 | -99.28985 | 17119 ft | 305 kts | 182° |
| 2026-04-22 16:32 | 19.84241 | -99.29031 | 17112 ft | 305 kts | 183° |
| 2026-04-22 16:32 | 19.82112 | -99.29070 | 17106 ft | 306 kts | 182° |
| 2026-04-22 16:33 | 19.79997 | -99.29095 | 17079 ft | 306 kts | 182° |
| 2026-04-22 16:33 | 19.77857 | -99.29106 | 16724 ft | 308 kts | 181° |
| 2026-04-22 16:33 | 19.75693 | -99.29106 | 16333 ft | 308 kts | 181° |
| 2026-04-22 16:33 | 19.73543 | -99.29104 | 15953 ft | 307 kts | 181° |
| 2026-04-22 16:34 | 19.71415 | -99.29102 | 15586 ft | 306 kts | 180° |
| 2026-04-22 16:34 | 19.69296 | -99.29101 | 15227 ft | 305 kts | 180° |
| 2026-04-22 16:34 | 19.67175 | -99.29099 | 14869 ft | 303 kts | 180° |
| 2026-04-22 16:34 | 19.65038 | -99.29098 | 14499 ft | 302 kts | 180° |
| 2026-04-22 16:35 | 19.62957 | -99.29098 | 14172 ft | 300 kts | 180° |
| 2026-04-22 16:35 | 19.60883 | -99.29072 | 14075 ft | 287 kts | 174° |
| 2026-04-22 16:35 | 19.59046 | -99.28515 | 14042 ft | 270 kts | 149° |
| 2026-04-22 16:35 | 19.57511 | -99.27406 | 14028 ft | 264 kts | 141° |
| 2026-04-22 16:36 | 19.56041 | -99.26221 | 13600 ft | 269 kts | 141° |
| 2026-04-22 16:36 | 19.54516 | -99.24992 | 13102 ft | 275 kts | 141° |
| 2026-04-22 16:36 | 19.52938 | -99.23848 | 12620 ft | 280 kts | 154° |
| 2026-04-22 16:36 | 19.51020 | -99.23416 | 12212 ft | 282 kts | 178° |
| 2026-04-22 16:37 | 19.49061 | -99.23405 | 11867 ft | 280 kts | 180° |
| 2026-04-22 16:37 | 19.47127 | -99.23405 | 11519 ft | 277 kts | 179° |
| 2026-04-22 16:37 | 19.45232 | -99.23392 | 11184 ft | 269 kts | 179° |
| 2026-04-22 16:37 | 19.43370 | -99.23367 | 10856 ft | 259 kts | 179° |
| 2026-04-22 16:38 | 19.41609 | -99.23339 | 10607 ft | 244 kts | 179° |
| 2026-04-22 16:38 | 19.39969 | -99.23223 | 10348 ft | 229 kts | 167° |
| 2026-04-22 16:38 | 19.38574 | -99.22524 | 10099 ft | 217 kts | 142° |
| 2026-04-22 16:38 | 19.37608 | -99.21338 | 9742 ft | 212 kts | 117° |
| 2026-04-22 16:39 | 19.37178 | -99.19879 | 9453 ft | 203 kts | 95° |
| 2026-04-22 16:39 | 19.37279 | -99.18475 | 9347 ft | 181 kts | 72° |
| 2026-04-22 16:39 | 19.37770 | -99.17303 | 9225 ft | 173 kts | 60° |
| 2026-04-22 16:39 | 19.38402 | -99.16212 | 9005 ft | 170 kts | 57° |
| 2026-04-22 16:40 | 19.39012 | -99.15184 | 8800 ft | 159 kts | 58° |
| 2026-04-22 16:40 | 19.39572 | -99.14203 | 8584 ft | 156 kts | 59° |
| 2026-04-22 16:40 | 19.40668 | -99.12231 | 8180 ft | 154 kts | 60° |
| 2026-04-22 16:41 | 19.41203 | -99.11252 | 7982 ft | 154 kts | 60° |
| 2026-04-22 16:41 | 19.41756 | -99.10276 | 7779 ft | 154 kts | 59° |
| 2026-04-22 16:41 | 19.42301 | -99.09307 | 7582 ft | 153 kts | 60° |
| 2026-04-22 16:41 | 19.42849 | -99.08330 | 7388 ft | 153 kts | 61° |
| 2026-04-22 16:42 | 19.43368 | -99.07397 | 7330 ft | 133 kts | 60° |
| 2026-04-22 16:42 | 19.43750 | -99.06713 | 7328 ft | 84 kts | 59° |
| 2026-04-22 16:42 | 19.43963 | -99.06335 | 7328 ft | 40 kts | 51° |
| 2026-04-22 16:42 | 19.44173 | -99.06186 | 7327 ft | 34 kts | 18° |
| 2026-04-22 16:43 | 19.44364 | -99.06179 | 7327 ft | 24 kts | 326° |
| 2026-04-22 16:43 | 19.44414 | -99.06333 | 7327 ft | 22 kts | 253° |
| 2026-04-22 16:43 | 19.44338 | -99.06474 | 7328 ft | 21 kts | 238° |
| 2026-04-22 16:43 | 19.44263 | -99.06607 | 7328 ft | 20 kts | 239° |
| 2026-04-22 16:44 | 19.44191 | -99.06733 | 7328 ft | 19 kts | 239° |
| 2026-04-22 16:44 | 19.44123 | -99.06853 | 7328 ft | 18 kts | 240° |
| 2026-04-22 16:44 | 19.44059 | -99.06969 | 7328 ft | 18 kts | 239° |
| 2026-04-22 16:44 | 19.43995 | -99.07082 | 7328 ft | 17 kts | 239° |
| 2026-04-22 16:45 | 19.43933 | -99.07191 | 7329 ft | 16 kts | 238° |
| 2026-04-22 16:45 | 19.43873 | -99.07295 | 7329 ft | 16 kts | 239° |
| 2026-04-22 16:45 | 19.43817 | -99.07400 | 7329 ft | 16 kts | 240° |
| 2026-04-22 16:45 | 19.43761 | -99.07501 | 7329 ft | 15 kts | 240° |
| 2026-04-22 16:46 | 19.43728 | -99.07572 | 7329 ft | 9 kts | 264° |
| 2026-04-22 16:46 | 19.43744 | -99.07635 | 7329 ft | 7 kts | 285° |
| 2026-04-22 16:46 | 19.43747 | -99.07677 | 7329 ft | 2 kts | 271° |
| 2026-04-22 16:46 | 19.43747 | -99.07697 | 7329 ft | 2 kts | 269° |
| 2026-04-22 16:47 | 19.43747 | -99.07702 | 7329 ft | 0 kts | 269° |
| 2026-04-22 16:47 | 19.43747 | -99.07707 | 7329 ft | 0 kts | 269° |